Station Historical Data
 
Daily Summary for January 21, 2019 Units:  Metric    English   Both
« Previous Day
Next Day »
Daily Weekly Monthly Yearly Custom
  Current: High: Low: Average:
Temperature: 11.9 °C 11.9 °C 7.6 °C 9 °C
Dew Point: 4.1 °C 6.8 °C 1.9 °C 4.2 °C
Humidity: 59% 86% 59% 72%
Wind Speed: 1.6km/h 12.9km/h 0.0km/h 4.7km/h
Wind Gust: 14.5km/h 22.5km/h - -
WindNE - - WSW
Pressure: 1016.3 hPa 1016.3 hPa 1013.5 hPa -
Precipitation: 2.0 mm      
Historical Graphs
 
 
Tabular Data for January 21, 2019
Time Temperature Dew Point Pressure Wind Wind Speed Wind Gust Humidity Rainfall Rate (Hourly) solar Conditions
00:05 10.1 °C 6.6 °C 1013.5 hPa NNW 1.6 km/h 3.2 km/h 79% 0.0 mm 0.00 W/m2 RA
00:10 10.1 °C 6.8 °C 1013.5 hPa Calm   6.4 km/h 80% 0.0 mm 0.00 W/m2 CLR
00:15 10.0 °C 6.7 °C 1013.6 hPa WNW 1.6 km/h 6.4 km/h 80% 0.0 mm 0.00 W/m2 CLR
00:20 10.0 °C 6.7 °C 1013.6 hPa NNW 1.6 km/h 3.2 km/h 80% 0.0 mm 0.00 W/m2 CLR
00:25 10.0 °C 6.7 °C 1013.6 hPa Calm   4.8 km/h 80% 0.0 mm 0.00 W/m2 CLR
00:30 10.0 °C 6.7 °C 1013.6 hPa North 1.6 km/h 4.8 km/h 80% 0.0 mm 0.00 W/m2 CLR
00:35 9.9 °C 6.7 °C 1013.7 hPa Calm   3.2 km/h 80% 0.0 mm 0.00 W/m2 CLR
00:40 9.9 °C 6.7 °C 1013.7 hPa NNW 3.2 km/h 4.8 km/h 80% 0.0 mm 0.00 W/m2 CLR
00:45 9.9 °C 6.6 °C 1013.7 hPa WNW 3.2 km/h 4.8 km/h 80% 0.0 mm 0.00 W/m2 CLR
00:50 9.8 °C 6.6 °C 1013.8 hPa West 3.2 km/h 6.4 km/h 80% 0.0 mm 0.00 W/m2 CLR
00:55 9.8 °C 6.7 °C 1013.9 hPa Calm   4.8 km/h 81% 0.0 mm 0.00 W/m2 CLR
01:00 9.8 °C 6.7 °C 1013.8 hPa WNW 3.2 km/h 12.9 km/h 81% 0.0 mm 0.00 W/m2 CLR
01:05 9.7 °C 6.3 °C 1013.8 hPa West 8.0 km/h 12.9 km/h 79% 0.0 mm 0.00 W/m2 CLR
01:10 9.6 °C 6.1 °C 1013.8 hPa WSW 4.8 km/h 16.1 km/h 79% 0.0 mm 0.00 W/m2 CLR
01:15 9.4 °C 5.6 °C 1013.9 hPa WSW 4.8 km/h 20.9 km/h 77% 0.0 mm 0.00 W/m2 CLR
01:20 9.4 °C 5.6 °C 1013.8 hPa WSW 8.0 km/h 14.5 km/h 77% 0.0 mm 0.00 W/m2 CLR
01:25 9.3 °C 5.3 °C 1013.7 hPa WSW 8.0 km/h 12.9 km/h 76% 0.0 mm 0.00 W/m2 CLR
01:30 9.3 °C 5.3 °C 1013.7 hPa WSW 4.8 km/h 14.5 km/h 76% 0.0 mm 0.00 W/m2 CLR
01:35 9.3 °C 5.3 °C 1013.7 hPa WSW 8.0 km/h 12.9 km/h 76% 0.0 mm 0.00 W/m2 CLR
01:40 9.3 °C 5.3 °C 1013.7 hPa West 1.6 km/h 16.1 km/h 76% 0.0 mm 0.00 W/m2 CLR
01:45 9.3 °C 5.3 °C 1013.7 hPa WNW 3.2 km/h 8.0 km/h 76% 0.0 mm 0.00 W/m2 CLR
01:50 9.3 °C 5.3 °C 1013.7 hPa NW 3.2 km/h 16.1 km/h 76% 0.0 mm 0.00 W/m2 CLR
01:55 9.4 °C 5.6 °C 1013.8 hPa North 3.2 km/h 9.7 km/h 77% 0.3 mm 0.00 W/m2 RA
02:00 9.4 °C 5.9 °C 1013.8 hPa NNE 4.8 km/h 11.3 km/h 79% 0.5 mm 0.00 W/m2 RA
02:05 9.3 °C 6.1 °C 1013.8 hPa North 3.2 km/h 8.0 km/h 80% 0.3 mm 0.00 W/m2 RA
02:10 9.2 °C 6.1 °C 1013.9 hPa NNE 3.2 km/h 11.3 km/h 81% 0.0 mm 0.00 W/m2 RA
02:15 9.1 °C 6.2 °C 1014.0 hPa North 8.0 km/h 14.5 km/h 82% 0.3 mm 0.00 W/m2 RA
02:20 8.9 °C 5.9 °C 1013.8 hPa WNW 4.8 km/h 16.1 km/h 82% 0.5 mm 0.00 W/m2 RA
02:25 8.7 °C 6.0 °C 1013.9 hPa WNW 4.8 km/h 12.9 km/h 83% 0.0 mm 0.00 W/m2 RA
02:30 8.6 °C 6.1 °C 1013.9 hPa NW 4.8 km/h 12.9 km/h 84% 0.3 mm 0.00 W/m2 RA
02:35 8.6 °C 6.0 °C 1013.9 hPa NW 3.2 km/h 11.3 km/h 84% 0.3 mm 0.00 W/m2 RA
02:40 8.5 °C 6.1 °C 1014.0 hPa NW 3.2 km/h 6.4 km/h 85% 0.0 mm 0.00 W/m2 RA
02:45 8.5 °C 6.1 °C 1013.9 hPa WNW 3.2 km/h 8.0 km/h 85% 0.0 mm 0.00 W/m2
02:50 8.5 °C 6.1 °C 1014.0 hPa WNW 1.6 km/h 6.4 km/h 85% 0.0 mm 0.00 W/m2
02:55 8.4 °C 6.2 °C 1014.0 hPa NW 1.6 km/h 8.0 km/h 86% 0.0 mm 0.00 W/m2
03:00 8.4 °C 6.2 °C 1014.0 hPa NW 1.6 km/h 4.8 km/h 86% 0.0 mm 0.00 W/m2
03:05 8.4 °C 6.2 °C 1014.0 hPa NNW 3.2 km/h 8.0 km/h 86% 0.0 mm 0.00 W/m2
03:15 8.3 °C 6.1 °C 1014.0 hPa NNW 4.8 km/h 12.9 km/h 86% 0.0 mm 0.00 W/m2
03:25 8.0 °C 5.8 °C 1014.0 hPa North 3.2 km/h 8.0 km/h 86% 0.0 mm 0.00 W/m2
03:30 7.9 °C 5.5 °C 1014.1 hPa North 4.8 km/h 14.5 km/h 85% 0.0 mm 0.00 W/m2
03:35 7.7 °C 5.3 °C 1014.2 hPa North 4.8 km/h 14.5 km/h 85% 0.0 mm 0.00 W/m2
03:40 7.6 °C 5.1 °C 1014.2 hPa North 1.6 km/h 19.3 km/h 84% 0.0 mm 0.00 W/m2 CLR
03:45 7.6 °C 5.0 °C 1014.2 hPa NNW 8.0 km/h 14.5 km/h 84% 0.0 mm 0.00 W/m2 CLR
04:05 7.7 °C 4.4 °C 1014.2 hPa NNE 4.8 km/h 9.7 km/h 80% 0.0 mm 0.00 W/m2 CLR
04:10 7.7 °C 4.3 °C 1014.3 hPa NNE 1.6 km/h 6.4 km/h 79% 0.0 mm 0.00 W/m2 CLR
04:15 7.7 °C 4.3 °C 1014.2 hPa NE 1.6 km/h 4.8 km/h 79% 0.0 mm 0.00 W/m2 CLR
04:20 7.7 °C 4.1 °C 1014.2 hPa North 3.2 km/h 12.9 km/h 78% 0.0 mm 0.00 W/m2 CLR
04:25 7.7 °C 3.9 °C 1014.2 hPa North 4.8 km/h 16.1 km/h 77% 0.0 mm 0.00 W/m2 CLR
04:30 7.8 °C 3.8 °C 1014.2 hPa NNW 4.8 km/h 9.7 km/h 76% 0.0 mm 0.00 W/m2 CLR
04:35 7.8 °C 3.5 °C 1014.3 hPa NW 3.2 km/h 8.0 km/h 74% 0.0 mm 0.00 W/m2 CLR
04:40 7.8 °C 3.5 °C 1014.3 hPa NNW 4.8 km/h 8.0 km/h 74% 0.0 mm 0.00 W/m2 CLR
04:45 7.9 °C 3.4 °C 1014.2 hPa North 1.6 km/h 8.0 km/h 73% 0.0 mm 0.00 W/m2 CLR
04:50 7.9 °C 3.2 °C 1014.2 hPa NNW 8.0 km/h 12.9 km/h 72% 0.0 mm 0.00 W/m2 CLR
04:55 8.0 °C 3.1 °C 1014.2 hPa North 4.8 km/h 12.9 km/h 71% 0.0 mm 0.00 W/m2 CLR
05:00 8.0 °C 3.1 °C 1014.3 hPa North 4.8 km/h 9.7 km/h 71% 0.0 mm 0.00 W/m2 CLR
05:05 7.9 °C 3.2 °C 1014.3 hPa North 3.2 km/h 8.0 km/h 72% 0.0 mm 0.00 W/m2 CLR
05:15 7.8 °C 3.1 °C 1014.2 hPa NNE 4.8 km/h 8.0 km/h 72% 0.0 mm 0.00 W/m2 CLR
05:25 7.8 °C 2.6 °C 1014.2 hPa North 11.3 km/h 16.1 km/h 70% 0.0 mm 0.00 W/m2 CLR
05:30 7.8 °C 2.5 °C 1014.2 hPa North 4.8 km/h 19.3 km/h 69% 0.0 mm 0.00 W/m2 CLR
05:35 7.9 °C 2.4 °C 1014.3 hPa North 9.7 km/h 16.1 km/h 68% 0.0 mm 0.00 W/m2 CLR
05:40 8.0 °C 2.5 °C 1014.4 hPa North 4.8 km/h 16.1 km/h 68% 0.0 mm 0.00 W/m2 CLR
05:45 8.1 °C 2.3 °C 1014.3 hPa NNW 8.0 km/h 16.1 km/h 67% 0.0 mm 0.00 W/m2 CLR
05:50 8.2 °C 2.2 °C 1014.3 hPa North 11.3 km/h 19.3 km/h 66% 0.0 mm 0.00 W/m2 CLR
06:00 8.4 °C 2.2 °C 1014.4 hPa North 8.0 km/h 19.3 km/h 65% 0.0 mm 0.00 W/m2 CLR
06:05 8.4 °C 2.2 °C 1014.5 hPa NNE 8.0 km/h 12.9 km/h 65% 0.0 mm 0.00 W/m2 CLR
06:10 8.4 °C 2.0 °C 1014.5 hPa North 4.8 km/h 12.9 km/h 64% 0.0 mm 0.00 W/m2 CLR
06:15 8.5 °C 2.1 °C 1014.5 hPa North 8.0 km/h 16.1 km/h 64% 0.0 mm 0.00 W/m2 CLR
06:25 8.6 °C 1.9 °C 1014.5 hPa NNW 8.0 km/h 19.3 km/h 63% 0.0 mm 0.00 W/m2 CLR
06:30 8.6 °C 1.9 °C 1014.5 hPa North 8.0 km/h 19.3 km/h 63% 0.0 mm 0.00 W/m2 CLR
06:40 8.6 °C 1.9 °C 1014.6 hPa NW 4.8 km/h 19.3 km/h 63% 0.0 mm 0.00 W/m2 CLR
06:50 8.7 °C 2.1 °C 1014.8 hPa North 11.3 km/h 19.3 km/h 63% 0.0 mm 0.00 W/m2 CLR
07:00 8.9 °C 1.9 °C 1014.8 hPa NNW 9.7 km/h 19.3 km/h 62% 0.0 mm 0.00 W/m2 CLR
07:05 9.0 °C 2.1 °C 1014.9 hPa NNW 8.0 km/h 20.9 km/h 62% 0.0 mm 0.00 W/m2 CLR
07:10 9.1 °C 2.2 °C 1015.0 hPa NNW 12.9 km/h 22.5 km/h 62% 0.0 mm 0.00 W/m2 CLR
07:15 9.2 °C 2.1 °C 1015.0 hPa NNW 11.3 km/h 19.3 km/h 61% 0.0 mm 0.00 W/m2 CLR
07:20 9.2 °C 2.1 °C 1015.1 hPa NNW 12.9 km/h 19.3 km/h 61% 0.0 mm 0.00 W/m2 CLR
07:25 9.2 °C 2.1 °C 1015.2 hPa NNW 9.7 km/h 19.3 km/h 61% 0.0 mm 0.00 W/m2 CLR
07:30 9.1 °C 2.0 °C 1015.2 hPa NNW 8.0 km/h 16.1 km/h 61% 0.0 mm 0.00 W/m2 CLR
07:35 9.0 °C 2.1 °C 1015.3 hPa North 4.8 km/h 14.5 km/h 62% 0.0 mm 0.00 W/m2 CLR
07:40 8.9 °C 2.1 °C 1015.3 hPa NNW 8.0 km/h 16.1 km/h 62% 0.0 mm 0.00 W/m2 CLR
07:45 8.8 °C 1.9 °C 1015.3 hPa NW 4.8 km/h 14.5 km/h 62% 0.3 mm 0.00 W/m2 RA
07:50 8.8 °C 2.1 °C 1015.4 hPa NNW 4.8 km/h 14.5 km/h 63% 0.0 mm 0.00 W/m2 RA
07:55 8.7 °C 2.1 °C 1015.4 hPa North 11.3 km/h 19.3 km/h 63% 0.0 mm 0.00 W/m2
08:00 8.7 °C 2.3 °C 1015.5 hPa NNW 8.0 km/h 19.3 km/h 64% 0.0 mm 0.00 W/m2 OVC
08:10 8.7 °C 2.4 °C 1015.5 hPa NW 4.8 km/h 12.9 km/h 65% 0.0 mm 0.00 W/m2 OVC
08:15 8.7 °C 2.4 °C 1015.5 hPa NW 4.8 km/h 19.3 km/h 65% 0.0 mm 6.00 W/m2 OVC
08:20 8.7 °C 2.4 °C 1015.4 hPa NW 4.8 km/h 16.1 km/h 65% 0.0 mm 8.40 W/m2 FEW
08:25 8.7 °C 2.7 °C 1015.4 hPa WNW 4.8 km/h 19.3 km/h 66% 0.0 mm 10.80 W/m2 FEW
08:35 8.7 °C 2.7 °C 1015.5 hPa WNW 1.6 km/h 12.9 km/h 66% 0.0 mm 16.80 W/m2 FEW
08:45 8.7 °C 2.9 °C 1015.7 hPa Calm   12.9 km/h 67% 0.0 mm 19.20 W/m2 FEW
08:50 8.8 °C 3.0 °C 1015.7 hPa NW 4.8 km/h 11.3 km/h 67% 0.0 mm 21.60 W/m2 FEW
08:55 8.8 °C 2.9 °C 1015.7 hPa NNE 3.2 km/h 12.9 km/h 67% 0.0 mm 22.80 W/m2 FEW
09:00 8.7 °C 3.1 °C 1015.7 hPa North 4.8 km/h 14.5 km/h 68% 0.0 mm 25.20 W/m2 FEW
09:05 8.7 °C 3.1 °C 1015.8 hPa North 4.8 km/h 14.5 km/h 68% 0.0 mm 27.60 W/m2 FEW
09:10 8.6 °C 3.1 °C 1015.8 hPa NNE 4.8 km/h 11.3 km/h 68% 0.0 mm 117.60 W/m2 FEW
09:15 8.7 °C 3.3 °C 1015.9 hPa NNE 1.6 km/h 14.5 km/h 69% 0.0 mm 141.60 W/m2 FEW
09:20 8.9 °C 3.5 °C 1015.8 hPa NNE 4.8 km/h 16.1 km/h 69% 0.0 mm 166.80 W/m2 FEW
09:25 9.2 °C 3.8 °C 1015.9 hPa NE 1.6 km/h 16.1 km/h 69% 0.0 mm 186.00 W/m2 FEW
09:35 9.7 °C 3.8 °C 1016.0 hPa ENE 3.2 km/h 9.7 km/h 67% 0.0 mm 231.60 W/m2 FEW
09:40 9.9 °C 4.1 °C 1016.0 hPa East 4.8 km/h 8.0 km/h 67% 0.0 mm 255.60 W/m2 FEW
09:45 10.3 °C 3.9 °C 1016.0 hPa East 4.8 km/h 9.7 km/h 65% 0.0 mm 278.40 W/m2 FEW
09:50 10.6 °C 4.1 °C 1016.0 hPa Calm   9.7 km/h 64% 0.0 mm 300.00 W/m2 FEW
09:55 10.8 °C 4.2 °C 1016.0 hPa WSW 1.6 km/h 6.4 km/h 64% 0.0 mm 325.20 W/m2 FEW
10:00 11.0 °C 4.2 °C 1016.1 hPa NW 1.6 km/h 9.7 km/h 63% 0.0 mm 362.40 W/m2 FEW
10:05 11.4 °C 4.3 °C 1016.1 hPa NNW 4.8 km/h 16.1 km/h 62% 0.0 mm 387.60 W/m2 FEW
10:10 11.7 °C 4.4 °C 1016.1 hPa ENE 1.6 km/h 4.8 km/h 61% 0.0 mm 88.80 W/m2 FEW
10:15 11.8 °C 4.3 °C 1016.2 hPa ENE 1.6 km/h 8.0 km/h 60% 0.0 mm 94.80 W/m2 FEW
10:25 11.7 °C 4.2 °C 1016.2 hPa Calm   8.0 km/h 60% 0.0 mm 381.60 W/m2 FEW
10:35 11.9 °C 4.1 °C 1016.3 hPa NE 1.6 km/h 14.5 km/h 59% 0.0 mm 501.60 W/m2 FEW
Juneau County Weather
Compliments of Weather Underground - 12.25 mb

past weather